Wykoff, Minnesota
Current Conditions -  °F | °C
As of 6:35 AM on Monday 22 Dec 2014 (Local Time) from KFKA Reporting Station
Haze Haze  
Wind Chill: 25°   Ceiling: 400
Heat Index: 33°   Visibility: 3mi
Dew Point: 32°   Wind: 10mph
Humidity: 95%   Direction: 140°SE
Pressure: 29.72"   Gusts: NA
Location:  43.71°N, 92.27°W
Report Text: KFKA 221235Z AUTO 14009KT 3SM BR OVC004 01/00 A2972 RMK AO2 T00070000
Loading
Personal Weather Stations






























Interactive Weather Map New forecast layout! Learn more

10-Day Weather Forecast

Advertisements
Track Severe Weather on mobile